aviador You're here:

GMMH Decoded Metar

DAKHLA in OCCIDENTAL SAHARA
Report Time2017-08-24 08:00:00
UTC Time2017-08-24 08:50:28
Flight Rules mvfr MVFR
Wind210° at 08 kt
W.Decomp.*RWY 21: 8.0 kt HW 0.8 kt RCW
W.Rank210° ranks 35
Current wind is above 210° avg. (7.8)
Visibility5000 m
Phenomena:N/A
Clouds:N/A
Expected CloudBase > 1,600 ft AGL from Temp-Dew spread
CeilingNone
Temp24°C (ISA +9)
Dew Point20°C (78% RH)
QNH1009 hPa
Density Alt1,532 ft
Elevation36 ft
Report Wrong Elevation
Raw Report
METAR GMMH 240800Z 21008KT 5000 NSC 24/20 Q1009 NOSIG=

Extra information for GMMH:More info

Metar Taf Metar & Taf Last 4 Metars F.Rules Stats Wind Profile Meteogram Temp Stats Airport Information Weather charts Add Link Nearby VenuesMetar ALERT Operation Metar Decoded Social comments